createdAt,value
2023-04-22T00:01:40.246Z,49.76
2023-04-22T00:04:07.666Z,50.49
2023-04-22T00:06:35.694Z,51.41
2023-04-22T00:09:03.506Z,52.16
2023-04-22T00:11:30.810Z,51.85
2023-04-22T00:13:58.202Z,51.96
2023-04-22T00:16:27.246Z,53.49
2023-04-22T00:18:54.535Z,54.19
2023-04-22T00:21:22.055Z,55.10
2023-04-22T00:23:49.408Z,54.97
2023-04-22T00:26:16.712Z,55.32
2023-04-22T00:28:44.072Z,56.49
2023-04-22T00:31:11.414Z,55.93
2023-04-22T00:33:38.746Z,55.79
2023-04-22T00:36:06.364Z,55.52
2023-04-22T00:38:33.956Z,55.46
2023-04-22T00:41:01.348Z,55.28
2023-04-22T00:43:28.869Z,55.41
2023-04-22T00:45:57.488Z,55.20
2023-04-22T00:48:26.845Z,55.58
2023-04-22T00:50:58.644Z,56.35
2023-04-22T00:53:26.216Z,56.82
2023-04-22T00:55:53.865Z,57.58
2023-04-22T00:58:21.869Z,57.50
2023-04-22T01:00:50.319Z,57.55
2023-04-22T01:03:18.297Z,57.15
2023-04-22T01:05:47.424Z,56.33
2023-04-22T01:08:14.945Z,56.85
2023-04-22T01:10:42.791Z,57.69
2023-04-22T01:13:10.424Z,57.57
2023-04-22T01:15:38.123Z,57.32
2023-04-22T01:18:05.647Z,57.05
2023-04-22T01:20:33.163Z,58.04
2023-04-22T01:23:03.214Z,57.49
2023-04-22T01:25:31.147Z,57.57
2023-04-22T01:27:58.581Z,57.86
2023-04-22T01:30:26.309Z,58.35
2023-04-22T01:32:53.890Z,57.76
2023-04-22T01:35:21.530Z,58.16
2023-04-22T01:37:48.808Z,58.20
2023-04-22T01:40:19.705Z,57.25
2023-04-22T01:42:47.217Z,57.80
2023-04-22T01:45:17.618Z,57.12
2023-04-22T01:47:45.726Z,55.44
2023-04-22T01:50:13.036Z,55.02
2023-04-22T01:52:40.499Z,54.36
2023-04-22T01:55:08.619Z,53.62
2023-04-22T01:57:36.456Z,54.25
2023-04-22T02:00:05.687Z,53.90
2023-04-22T02:02:40.077Z,53.08
2023-04-22T02:05:08.287Z,52.82
2023-04-22T02:07:36.518Z,52.26
2023-04-22T02:10:05.598Z,52.16
2023-04-22T02:12:32.980Z,52.26
2023-04-22T02:15:00.298Z,51.64
2023-04-22T02:17:27.881Z,52.14
2023-04-22T02:19:55.429Z,52.03
2023-04-22T02:22:23.917Z,51.50
2023-04-22T02:24:51.750Z,51.83
2023-04-22T02:27:18.991Z,51.96
2023-04-22T02:29:48.491Z,52.49
2023-04-22T02:32:17.979Z,52.98
2023-04-22T02:34:45.305Z,53.10
2023-04-22T02:37:13.703Z,53.33
2023-04-22T02:39:41.082Z,53.02
2023-04-22T02:42:08.677Z,53.11
2023-04-22T02:44:36.101Z,53.26
2023-04-22T02:47:04.245Z,52.97
2023-04-22T02:49:31.508Z,53.06
2023-04-22T02:51:58.896Z,53.49
2023-04-22T02:54:26.228Z,53.83
2023-04-22T02:56:53.525Z,53.68
2023-04-22T02:59:20.941Z,53.22
2023-04-22T03:01:48.612Z,53.73
2023-04-22T03:04:28.738Z,55.27
2023-04-22T03:06:56.314Z,57.05
2023-04-22T03:09:23.639Z,57.21
2023-04-22T03:11:50.892Z,56.57
2023-04-22T03:14:18.251Z,58.42
2023-04-22T03:16:45.591Z,58.95
2023-04-22T03:19:15.099Z,59.79
2023-04-22T03:21:42.445Z,60.58
2023-04-22T03:24:10.079Z,61.95
2023-04-22T03:26:42.993Z,62.53
2023-04-22T03:29:10.287Z,62.95
2023-04-22T03:31:37.814Z,63.50
2023-04-22T03:34:05.250Z,63.54
2023-04-22T03:36:33.210Z,64.32
2023-04-22T03:39:00.755Z,64.51
2023-04-22T03:41:29.264Z,64.05
2023-04-22T03:43:56.927Z,64.57
2023-04-22T03:46:25.480Z,64.42
2023-04-22T03:49:00.724Z,64.21
2023-04-22T03:51:32.321Z,64.11
2023-04-22T03:54:03.751Z,64.00
2023-04-22T03:56:34.287Z,63.64
2023-04-22T03:59:02.063Z,63.22
2023-04-22T04:01:29.689Z,64.65
2023-04-22T04:04:00.805Z,65.36
2023-04-22T04:06:36.093Z,65.40
2023-04-22T04:09:05.602Z,65.75
2023-04-22T04:11:33.872Z,66.37
2023-04-22T04:14:03.514Z,66.46
2023-04-22T04:16:41.951Z,65.93
2023-04-22T04:19:14.456Z,65.42
2023-04-22T04:21:42.312Z,66.37
2023-04-22T04:24:09.981Z,67.02
2023-04-22T04:26:43.413Z,67.31
2023-04-22T04:29:15.879Z,67.97
2023-04-22T04:31:49.546Z,67.85
2023-04-22T04:34:17.711Z,68.19
2023-04-22T04:36:46.543Z,68.06
2023-04-22T04:39:29.182Z,68.56
2023-04-22T04:41:59.013Z,68.40
2023-04-22T04:44:28.209Z,69.42
2023-04-22T04:46:58.094Z,68.93
2023-04-22T04:49:26.628Z,70.60
2023-04-22T04:51:58.731Z,71.21
2023-04-22T04:54:27.299Z,73.47
2023-04-22T04:56:55.348Z,74.28
2023-04-22T04:59:22.906Z,74.40
2023-04-22T05:01:50.551Z,76.75
2023-04-22T05:04:18.160Z,76.95
2023-04-22T05:06:45.696Z,77.81
2023-04-22T05:09:15.105Z,79.12
2023-04-22T05:11:44.631Z,77.81
2023-04-22T05:14:16.947Z,78.69
2023-04-22T05:16:46.367Z,79.95
2023-04-22T05:19:14.564Z,79.78
2023-04-22T05:21:43.002Z,81.44
2023-04-22T05:24:10.446Z,81.82
2023-04-22T05:26:37.979Z,81.83
2023-04-22T05:29:11.942Z,80.72
2023-04-22T05:31:39.538Z,82.21
2023-04-22T05:34:07.921Z,82.56
2023-04-22T05:36:35.673Z,83.38
2023-04-22T05:39:03.110Z,84.12
2023-04-22T05:41:32.545Z,85.83
2023-04-22T05:44:01.060Z,86.97
2023-04-22T05:46:29.989Z,87.21
2023-04-22T05:48:57.670Z,87.95
2023-04-22T05:51:43.607Z,88.56
2023-04-22T05:54:13.608Z,89.45
2023-04-22T05:56:41.237Z,90.39
2023-04-22T05:59:08.786Z,90.38
2023-04-22T06:01:39.305Z,88.93
2023-04-22T06:04:10.142Z,90.42
2023-04-22T06:06:38.008Z,90.93
2023-04-22T06:09:07.096Z,91.77
2023-04-22T06:11:34.462Z,92.51
2023-04-22T06:14:01.739Z,92.21
2023-04-22T06:16:29.670Z,92.53
2023-04-22T06:18:56.898Z,92.50
2023-04-22T06:21:25.231Z,92.83
2023-04-22T06:23:52.559Z,92.09
2023-04-22T06:26:22.507Z,92.74
2023-04-22T06:28:49.914Z,93.69
2023-04-22T06:31:21.230Z,94.29
2023-04-22T06:33:49.142Z,94.19
2023-04-22T06:36:16.541Z,93.36
2023-04-22T06:38:46.644Z,93.13
2023-04-22T06:41:35.124Z,94.14
2023-04-22T06:44:09.685Z,93.96
2023-04-22T06:46:50.456Z,94.48
2023-04-22T06:49:38.736Z,95.35
2023-04-22T06:52:29.176Z,96.03
2023-04-22T06:54:58.945Z,96.06
2023-04-22T06:57:26.191Z,96.40
2023-04-22T06:59:53.451Z,96.71
2023-04-22T07:02:22.198Z,96.46
2023-04-22T07:04:50.448Z,95.44
2023-04-22T07:07:17.854Z,95.13
2023-04-22T07:09:45.760Z,96.44
2023-04-22T07:12:13.171Z,96.59
2023-04-22T07:14:47.010Z,96.82
2023-04-22T07:17:14.385Z,96.73
2023-04-22T07:19:42.253Z,96.72
2023-04-22T07:22:09.833Z,96.43
2023-04-22T07:24:37.549Z,95.78
2023-04-22T07:27:04.851Z,96.40
2023-04-22T07:29:32.058Z,97.11
2023-04-22T07:32:00.584Z,96.21
2023-04-22T07:34:27.887Z,95.81
2023-04-22T07:36:55.363Z,96.38
2023-04-22T07:39:22.823Z,97.44
2023-04-22T07:41:51.208Z,96.13
2023-04-22T07:44:21.555Z,96.52
2023-04-22T07:46:50.333Z,96.41
2023-04-22T07:49:17.638Z,94.95
2023-04-22T07:51:44.962Z,95.30
2023-04-22T07:54:12.414Z,95.03
2023-04-22T07:56:39.678Z,96.01
2023-04-22T07:59:06.948Z,96.00
2023-04-22T08:01:34.283Z,97.30
2023-04-22T08:04:02.005Z,97.42
2023-04-22T08:06:29.497Z,95.83
2023-04-22T08:08:56.820Z,95.07
2023-04-22T08:11:24.261Z,97.41
2023-04-22T08:13:51.784Z,97.98
2023-04-22T08:16:19.479Z,98.53
2023-04-22T08:18:46.858Z,98.27
2023-04-22T08:21:14.706Z,97.87
2023-04-22T08:23:41.986Z,99.10
2023-04-22T08:26:15.045Z,99.47
2023-04-22T08:28:42.704Z,98.71
2023-04-22T08:31:11.912Z,98.74
2023-04-22T08:33:42.379Z,99.27
2023-04-22T08:36:11.127Z,99.36
2023-04-22T08:38:38.410Z,100.00
2023-04-22T08:41:06.146Z,100.00
2023-04-22T08:43:34.403Z,99.91
2023-04-22T08:46:02.298Z,100.00
2023-04-22T08:48:29.787Z,99.13
2023-04-22T08:50:59.006Z,99.32
2023-04-22T08:53:26.990Z,99.67
2023-04-22T08:55:56.442Z,99.39
2023-04-22T08:58:24.238Z,99.33
2023-04-22T09:00:51.999Z,98.53
2023-04-22T09:03:19.670Z,98.39
2023-04-22T09:05:47.503Z,97.27
2023-04-22T09:08:14.906Z,98.00
2023-04-22T09:10:42.335Z,98.24
2023-04-22T09:13:09.946Z,98.13
2023-04-22T09:15:37.510Z,97.29
2023-04-22T09:18:05.644Z,96.84
2023-04-22T09:20:33.113Z,96.45
2023-04-22T09:23:05.076Z,96.61
2023-04-22T09:25:35.189Z,95.98
2023-04-22T09:28:03.302Z,95.63
2023-04-22T09:30:32.729Z,95.92
2023-04-22T09:33:04.266Z,96.34
2023-04-22T09:35:33.643Z,96.70
2023-04-22T09:38:07.998Z,97.37
2023-04-22T09:40:36.069Z,97.65
2023-04-22T09:43:06.375Z,97.72
2023-04-22T09:45:41.843Z,96.86
2023-04-22T09:48:14.323Z,96.36
2023-04-22T09:50:50.170Z,96.01
2023-04-22T09:53:19.433Z,93.98
2023-04-22T09:55:51.828Z,94.14
2023-04-22T09:58:20.849Z,93.86
2023-04-22T10:00:51.056Z,94.59
2023-04-22T10:03:19.205Z,94.82
2023-04-22T10:05:46.740Z,94.30
2023-04-22T10:08:15.301Z,93.67
2023-04-22T10:10:43.120Z,93.48
2023-04-22T10:13:10.693Z,92.69
2023-04-22T10:15:57.308Z,91.78
2023-04-22T10:18:26.877Z,92.64
2023-04-22T10:20:56.728Z,92.61
2023-04-22T10:23:24.871Z,92.53
2023-04-22T10:25:54.693Z,91.99
2023-04-22T10:28:23.709Z,93.01
2023-04-22T10:30:51.257Z,94.15
2023-04-22T10:33:21.768Z,93.91
2023-04-22T10:36:21.622Z,92.34
2023-04-22T10:38:54.656Z,91.56
2023-04-22T10:41:35.571Z,91.04
2023-04-22T10:44:07.667Z,91.67
2023-04-22T10:46:37.095Z,91.46
2023-04-22T10:49:13.223Z,89.96
2023-04-22T10:52:00.160Z,89.81
2023-04-22T10:54:29.567Z,88.87
2023-04-22T10:57:17.067Z,88.28
2023-04-22T10:59:49.434Z,87.96
2023-04-22T11:02:18.613Z,89.20
2023-04-22T11:04:46.368Z,88.03
2023-04-22T11:07:26.396Z,89.16
2023-04-22T11:10:00.673Z,87.07
2023-04-22T11:12:42.130Z,88.33
2023-04-22T11:15:11.531Z,89.27
2023-04-22T11:17:40.362Z,89.49
2023-04-22T11:20:08.638Z,90.54
2023-04-22T11:22:38.490Z,90.00
2023-04-22T11:25:06.635Z,88.34
2023-04-22T11:27:33.859Z,87.11
2023-04-22T11:30:01.176Z,86.08
2023-04-22T11:32:29.507Z,86.14
2023-04-22T11:34:57.539Z,85.34
2023-04-22T11:37:24.958Z,86.28
2023-04-22T11:40:16.899Z,85.63
2023-04-22T11:42:40.002Z,85.00
2023-04-22T11:45:08.529Z,82.86
2023-04-22T11:47:36.240Z,83.62
2023-04-22T11:50:07.117Z,83.54
2023-04-22T11:52:53.515Z,83.72
2023-04-22T11:55:21.122Z,82.88
2023-04-22T11:58:00.127Z,81.98
2023-04-22T12:00:33.040Z,82.80
2023-04-22T12:03:21.706Z,83.02
2023-04-22T12:05:59.396Z,82.09
2023-04-22T12:08:37.084Z,80.85
2023-04-22T12:11:06.342Z,81.04
2023-04-22T12:13:42.373Z,81.15
2023-04-22T12:16:14.089Z,79.79
2023-04-22T12:18:48.849Z,77.47
2023-04-22T12:21:20.171Z,75.58
2023-04-22T12:23:59.067Z,77.33
2023-04-22T12:26:27.882Z,78.94
2023-04-22T12:28:58.051Z,80.48
2023-04-22T12:31:26.164Z,81.41
2023-04-22T12:33:53.961Z,80.82
2023-04-22T12:36:21.550Z,80.24
2023-04-22T12:38:49.303Z,79.91
2023-04-22T12:41:16.690Z,77.16
2023-04-22T12:43:44.019Z,78.10
2023-04-22T12:46:11.483Z,77.78
2023-04-22T12:48:38.858Z,78.12
2023-04-22T12:51:06.981Z,77.72
2023-04-22T12:53:34.780Z,77.21
2023-04-22T12:56:02.361Z,77.23
2023-04-22T12:58:30.005Z,75.33
2023-04-22T13:00:59.792Z,75.10
2023-04-22T13:03:27.723Z,74.74
2023-04-22T13:05:55.038Z,74.11
2023-04-22T13:08:22.477Z,73.18
2023-04-22T13:10:49.837Z,72.72
2023-04-22T13:13:19.403Z,71.52
2023-04-22T13:15:53.859Z,70.51
2023-04-22T13:18:22.748Z,70.36
2023-04-22T13:20:50.143Z,69.77
2023-04-22T13:23:17.652Z,68.83
2023-04-22T13:25:44.999Z,67.64
2023-04-22T13:28:12.392Z,67.78
2023-04-22T13:30:40.148Z,66.52
2023-04-22T13:33:07.627Z,65.99
2023-04-22T13:35:36.107Z,64.92
2023-04-22T13:38:03.959Z,64.47
2023-04-22T13:40:31.237Z,63.93
2023-04-22T13:42:58.776Z,64.35
2023-04-22T13:45:26.225Z,62.83
2023-04-22T13:47:54.160Z,62.99
2023-04-22T13:50:23.264Z,62.65
2023-04-22T13:52:50.623Z,63.72
2023-04-22T13:55:18.029Z,62.29
2023-04-22T13:57:45.817Z,60.85
2023-04-22T14:00:14.014Z,60.15
2023-04-22T14:02:41.776Z,59.66
2023-04-22T14:05:10.531Z,58.93
2023-04-22T14:07:38.011Z,59.13
2023-04-22T14:10:08.428Z,57.83
2023-04-22T14:12:35.732Z,57.04
2023-04-22T14:15:03.222Z,56.72
2023-04-22T14:17:31.005Z,56.95
2023-04-22T14:20:00.124Z,55.81
2023-04-22T14:22:27.700Z,55.68
2023-04-22T14:24:55.652Z,56.50
2023-04-22T14:27:23.132Z,57.48
2023-04-22T14:29:52.457Z,57.31
2023-04-22T14:32:20.370Z,56.96
2023-04-22T14:34:48.445Z,57.16
2023-04-22T14:37:15.828Z,56.64
2023-04-22T14:39:43.109Z,56.04
2023-04-22T14:42:10.996Z,55.65
2023-04-22T14:44:38.236Z,55.27
2023-04-22T14:47:06.138Z,55.92
2023-04-22T14:49:33.503Z,54.58
2023-04-22T14:52:01.497Z,54.58
2023-04-22T14:54:29.006Z,54.88
2023-04-22T14:56:56.541Z,54.41
2023-04-22T14:59:23.780Z,53.08
2023-04-22T15:01:51.180Z,53.69
2023-04-22T15:04:19.442Z,53.27
2023-04-22T15:06:46.999Z,52.56
2023-04-22T15:09:14.365Z,51.98
2023-04-22T15:11:41.649Z,52.42
2023-04-22T15:14:08.965Z,52.78
2023-04-22T15:16:36.359Z,52.49
2023-04-22T15:19:03.655Z,52.49
2023-04-22T15:21:32.002Z,52.46
2023-04-22T15:23:59.246Z,51.46
2023-04-22T15:26:26.533Z,49.81
2023-04-22T15:28:53.800Z,49.02
2023-04-22T15:31:21.459Z,49.08
2023-04-22T15:33:48.783Z,48.25
2023-04-22T15:36:19.862Z,47.95
2023-04-22T15:38:47.332Z,47.74
2023-04-22T15:41:15.686Z,46.69
2023-04-22T15:43:43.046Z,46.12
2023-04-22T15:46:10.395Z,45.35
2023-04-22T15:48:37.732Z,45.54
2023-04-22T15:51:05.303Z,45.76
2023-04-22T15:53:32.744Z,45.55
2023-04-22T15:56:00.015Z,44.64
2023-04-22T15:58:28.996Z,44.85
2023-04-22T16:01:07.693Z,45.05
2023-04-22T16:03:45.167Z,45.54
2023-04-22T16:06:12.763Z,45.05
2023-04-22T16:08:40.050Z,45.33
2023-04-22T16:11:07.452Z,46.17
2023-04-22T16:13:34.708Z,45.77
2023-04-22T16:16:02.050Z,46.67
2023-04-22T16:18:29.427Z,46.65
2023-04-22T16:20:56.823Z,47.15
2023-04-22T16:23:24.076Z,46.67
2023-04-22T16:25:51.493Z,47.33
2023-04-22T16:28:19.041Z,47.54
2023-04-22T16:30:46.909Z,47.68
2023-04-22T16:33:14.886Z,47.27
2023-04-22T16:35:42.622Z,47.63
2023-04-22T16:38:10.260Z,47.46
2023-04-22T16:40:38.710Z,48.24
2023-04-22T16:43:07.228Z,47.09
2023-04-22T16:45:35.601Z,46.60
2023-04-22T16:48:03.444Z,46.78
2023-04-22T16:50:30.727Z,46.65
2023-04-22T16:52:58.136Z,46.47
2023-04-22T16:55:25.423Z,46.01
2023-04-22T16:57:52.893Z,46.17
2023-04-22T17:00:20.948Z,45.71
2023-04-22T17:02:48.369Z,45.53
2023-04-22T17:05:15.820Z,45.93
2023-04-22T17:07:43.199Z,46.26
2023-04-22T17:10:10.716Z,45.92
2023-04-22T17:12:37.996Z,45.46
2023-04-22T17:15:06.335Z,46.13
2023-04-22T17:17:33.759Z,46.56
2023-04-22T17:20:01.207Z,46.22
2023-04-22T17:22:28.442Z,46.05
2023-04-22T17:24:57.587Z,46.68
2023-04-22T17:27:25.040Z,46.05
2023-04-22T17:29:52.376Z,46.74
2023-04-22T17:32:20.197Z,46.56
2023-04-22T17:34:47.838Z,46.52
2023-04-22T17:37:15.214Z,46.74
2023-04-22T17:39:42.814Z,46.68
2023-04-22T17:42:10.137Z,46.59
2023-04-22T17:44:37.795Z,46.75
2023-04-22T17:47:07.143Z,46.78
2023-04-22T17:49:34.902Z,46.42
2023-04-22T17:52:02.209Z,46.84
2023-04-22T17:54:29.570Z,46.59
2023-04-22T17:56:57.054Z,47.12
2023-04-22T17:59:24.385Z,46.71
2023-04-22T18:01:51.698Z,47.50
2023-04-22T18:04:19.412Z,48.88
2023-04-22T18:06:47.007Z,48.46
2023-04-22T18:09:14.329Z,48.27
2023-04-22T18:11:41.576Z,47.66
2023-04-22T18:14:08.977Z,47.88
2023-04-22T18:16:36.223Z,47.81
2023-04-22T18:19:06.646Z,48.53
2023-04-22T18:21:36.121Z,48.32
2023-04-22T18:24:04.548Z,48.22
2023-04-22T18:26:32.317Z,47.98
2023-04-22T18:28:59.618Z,48.88
2023-04-22T18:31:27.098Z,49.00
2023-04-22T18:33:54.409Z,48.60
2023-04-22T18:36:21.676Z,48.72
2023-04-22T18:38:48.967Z,49.46
2023-04-22T18:41:16.477Z,49.61
2023-04-22T18:43:43.950Z,49.70
2023-04-22T18:46:11.206Z,50.18
2023-04-22T18:48:38.552Z,50.54
2023-04-22T18:51:06.112Z,49.43
2023-04-22T18:53:34.383Z,50.63
2023-04-22T18:56:02.193Z,50.62
2023-04-22T18:58:29.691Z,51.22
2023-04-22T19:00:57.048Z,51.03
2023-04-22T19:03:27.708Z,50.62
2023-04-22T19:05:55.140Z,51.08
2023-04-22T19:08:22.448Z,51.13
2023-04-22T19:10:49.667Z,51.80
2023-04-22T19:13:29.089Z,51.74
2023-04-22T19:15:57.973Z,51.58
2023-04-22T19:18:26.250Z,52.34
2023-04-22T19:20:54.044Z,53.08
2023-04-22T19:23:21.876Z,53.86
2023-04-22T19:25:49.231Z,53.56
2023-04-22T19:28:16.425Z,53.27
2023-04-22T19:30:43.696Z,53.21
2023-04-22T19:33:11.310Z,53.45
2023-04-22T19:35:38.544Z,53.63
2023-04-22T19:38:05.950Z,53.87
2023-04-22T19:40:33.387Z,53.88
2023-04-22T19:43:00.861Z,54.21
2023-04-22T19:45:29.918Z,54.05
2023-04-22T19:47:57.587Z,54.88
2023-04-22T19:50:25.045Z,55.09
2023-04-22T19:52:57.519Z,55.78
2023-04-22T19:55:25.167Z,56.14
2023-04-22T19:57:52.768Z,55.79
2023-04-22T20:00:20.389Z,56.03
2023-04-22T20:02:47.983Z,56.05
2023-04-22T20:05:18.292Z,56.23
2023-04-22T20:07:45.483Z,56.76
2023-04-22T20:10:13.921Z,57.66
2023-04-22T20:12:41.615Z,58.41
2023-04-22T20:15:09.641Z,58.19
2023-04-22T20:17:39.176Z,58.50
2023-04-22T20:20:11.718Z,58.41
2023-04-22T20:22:41.449Z,58.26
2023-04-22T20:25:12.405Z,58.34
2023-04-22T20:27:40.511Z,57.76
2023-04-22T20:30:08.706Z,57.85
2023-04-22T20:32:36.733Z,57.69
2023-04-22T20:35:05.834Z,57.36
2023-04-22T20:37:36.039Z,57.65
2023-04-22T20:40:04.551Z,57.91
2023-04-22T20:42:36.882Z,58.00
2023-04-22T20:45:05.448Z,57.49
2023-04-22T20:47:33.056Z,57.52
2023-04-22T20:50:00.633Z,56.89
2023-04-22T20:52:27.931Z,56.77
2023-04-22T20:54:56.667Z,56.68
2023-04-22T20:57:24.176Z,56.88
2023-04-22T20:59:51.527Z,56.84
2023-04-22T21:02:20.411Z,56.50
2023-04-22T21:04:48.312Z,56.41
2023-04-22T21:07:16.851Z,56.63
2023-04-22T21:09:44.300Z,56.52
2023-04-22T21:12:11.984Z,56.59
2023-04-22T21:14:41.699Z,57.27
2023-04-22T21:17:21.438Z,57.28
2023-04-22T21:19:50.524Z,57.17
2023-04-22T21:22:21.452Z,57.44
2023-04-22T21:24:49.694Z,57.41
2023-04-22T21:27:18.158Z,58.19
2023-04-22T21:29:46.677Z,58.34
2023-04-22T21:32:14.354Z,58.57
2023-04-22T21:34:42.181Z,58.26
2023-04-22T21:37:09.948Z,58.76
2023-04-22T21:39:37.514Z,57.78
2023-04-22T21:42:07.948Z,59.13
2023-04-22T21:44:37.208Z,59.23
2023-04-22T21:47:05.542Z,59.37
2023-04-22T21:49:33.207Z,59.66
2023-04-22T21:52:01.085Z,60.34
2023-04-22T21:54:28.502Z,60.55
2023-04-22T21:56:56.938Z,60.46
2023-04-22T21:59:24.851Z,60.44
2023-04-22T22:01:52.418Z,60.25
2023-04-22T22:04:20.081Z,60.03
2023-04-22T22:06:47.557Z,60.45
2023-04-22T22:09:15.494Z,60.28
2023-04-22T22:11:42.779Z,60.12
2023-04-22T22:14:10.186Z,60.12
2023-04-22T22:16:38.411Z,60.05
2023-04-22T22:19:06.461Z,60.42
2023-04-22T22:21:33.938Z,60.62
2023-04-22T22:24:01.262Z,60.95
2023-04-22T22:26:29.237Z,61.74
2023-04-22T22:28:57.517Z,61.64
2023-04-22T22:31:24.807Z,62.27
2023-04-22T22:33:52.232Z,62.58
2023-04-22T22:36:19.758Z,62.98
2023-04-22T22:38:47.040Z,63.68
2023-04-22T22:41:14.302Z,63.98
2023-04-22T22:43:41.548Z,63.96
2023-04-22T22:46:09.009Z,64.11
2023-04-22T22:48:36.901Z,64.02
2023-04-22T22:51:04.399Z,64.37
2023-04-22T22:53:33.845Z,64.15
2023-04-22T22:56:01.120Z,64.10
2023-04-22T22:58:28.399Z,64.74
2023-04-22T23:00:56.165Z,64.74
2023-04-22T23:03:23.604Z,64.49
2023-04-22T23:05:51.133Z,64.21
2023-04-22T23:08:18.521Z,63.65
2023-04-22T23:10:45.774Z,63.92
2023-04-22T23:13:13.011Z,63.89
2023-04-22T23:15:40.445Z,65.08
2023-04-22T23:18:09.122Z,64.98
2023-04-22T23:20:36.995Z,64.39
2023-04-22T23:23:04.713Z,64.48
2023-04-22T23:25:32.189Z,63.58
2023-04-22T23:27:59.848Z,64.87
2023-04-22T23:30:27.334Z,65.58
2023-04-22T23:32:57.656Z,64.81
2023-04-22T23:35:27.528Z,65.32
2023-04-22T23:37:55.066Z,65.94
2023-04-22T23:40:22.288Z,66.25
2023-04-22T23:42:49.840Z,65.83
2023-04-22T23:45:17.135Z,65.78
2023-04-22T23:47:44.550Z,65.86
2023-04-22T23:50:14.014Z,65.89
2023-04-22T23:52:42.632Z,66.20
2023-04-22T23:55:11.339Z,66.19
2023-04-22T23:57:38.804Z,66.33
